Time;durP1;ratioP1;P1;durP2;ratioP2;P2;SDS_P1;SDS_P2;PMS_P1;PMS_P2;Temp;Humidity;BMP_temperature;BMP_pressure;BME280_temperature;BME280_humidity;BME280_pressure;Samples;Min_cycle;Max_cycle;Signal;HPM_P1;HPM_P2
2024/02/08 00:00:49;;;;;;;2.80;1.80;;;;;;;8.48;100.00;95116.00;5075894;28;20219;-68
2024/02/08 00:03:15;;;;;;;4.63;1.83;;;;;;;8.48;100.00;95119.63;5075856;28;20254;-67
2024/02/08 00:05:42;;;;;;;2.83;1.50;;;;;;;8.57;100.00;95119.31;5075936;28;20212;-69
2024/02/08 00:08:11;;;;;;;1.17;0.90;;;;;;;8.40;100.00;95123.22;5075956;28;20252;-68
2024/02/08 00:10:39;;;;;;;1.50;0.90;;;;;;;8.64;100.00;95120.97;5075134;28;20695;-68
2024/02/08 00:13:05;;;;;;;2.67;1.30;;;;;;;8.47;100.00;95118.03;5075928;28;20451;-68
2024/02/08 00:15:32;;;;;;;3.17;1.20;;;;;;;8.60;100.00;95116.28;5076704;28;20200;-68
2024/02/08 00:17:59;;;;;;;2.27;0.90;;;;;;;8.57;100.00;95114.84;5076008;28;20227;-68
2024/02/08 00:20:25;;;;;;;2.23;1.17;;;;;;;8.52;100.00;95125.13;5074578;28;20904;-68
2024/02/08 00:22:53;;;;;;;1.67;1.10;;;;;;;8.44;100.00;95118.38;5076325;28;20207;-68
2024/02/08 00:25:19;;;;;;;3.10;1.27;;;;;;;8.38;100.00;95122.59;5076314;28;20257;-68
2024/02/08 00:27:48;;;;;;;1.57;0.97;;;;;;;8.60;100.00;95130.25;5075556;28;20200;-68
2024/02/08 00:30:16;;;;;;;1.40;0.80;;;;;;;8.60;100.00;95121.53;5074227;28;20463;-68
2024/02/08 00:32:46;;;;;;;2.13;0.97;;;;;;;8.48;100.00;95113.38;5076432;28;20200;-68
2024/02/08 00:35:17;;;;;;;1.83;1.13;;;;;;;8.62;100.00;95115.09;5075908;28;20237;-68
2024/02/08 00:37:46;;;;;;;3.87;1.03;;;;;;;8.61;100.00;95110.03;5075243;28;20227;-68
2024/02/08 00:40:13;;;;;;;1.53;1.17;;;;;;;8.50;100.00;95108.75;5075266;28;20227;-68
2024/02/08 00:42:40;;;;;;;0.87;0.80;;;;;;;8.62;100.00;95116.94;5076130;28;20199;-69
2024/02/08 00:45:09;;;;;;;1.70;0.90;;;;;;;8.69;100.00;95104.63;5075862;28;20579;-69
2024/02/08 00:47:35;;;;;;;1.83;0.97;;;;;;;8.62;100.00;95117.72;5075820;28;20207;-68
2024/02/08 00:50:02;;;;;;;1.93;0.90;;;;;;;8.70;100.00;95109.69;5075114;28;20612;-68
2024/02/08 00:52:28;;;;;;;2.67;1.27;;;;;;;8.63;100.00;95106.22;5075224;28;20796;-68
2024/02/08 00:54:55;;;;;;;2.27;1.40;;;;;;;8.73;100.00;95108.50;5075693;28;20210;-68
2024/02/08 00:57:21;;;;;;;1.97;1.47;;;;;;;8.59;100.00;95110.25;5075547;28;20227;-68
2024/02/08 00:59:48;;;;;;;1.60;1.07;;;;;;;8.64;100.00;95107.03;5074777;28;20226;-68
2024/02/08 01:02:16;;;;;;;1.93;1.13;;;;;;;8.79;100.00;95118.25;5075757;28;20234;-68
2024/02/08 01:04:48;;;;;;;2.97;1.27;;;;;;;8.73;100.00;95114.56;5075244;28;20218;-69
2024/02/08 01:07:15;;;;;;;1.80;0.93;;;;;;;8.79;100.00;95116.41;5075165;28;20804;-68
2024/02/08 01:09:42;;;;;;;2.60;1.30;;;;;;;8.70;100.00;95109.69;5075479;28;20684;-68
2024/02/08 01:12:09;;;;;;;2.73;0.90;;;;;;;8.72;100.00;95112.94;5075284;28;20598;-68
2024/02/08 01:14:36;;;;;;;1.57;1.00;;;;;;;8.97;100.00;95108.84;5075240;28;20246;-69
2024/02/08 01:17:04;;;;;;;1.33;1.03;;;;;;;8.85;100.00;95117.47;5075291;28;20234;-68
2024/02/08 01:19:32;;;;;;;1.03;1.00;;;;;;;9.05;100.00;95115.75;5074553;28;20519;-68
2024/02/08 01:21:59;;;;;;;1.70;0.93;;;;;;;8.83;100.00;95114.22;5075116;28;20200;-68
2024/02/08 01:24:28;;;;;;;1.13;0.90;;;;;;;8.95;100.00;95113.50;5075788;28;20533;-69
2024/02/08 01:26:56;;;;;;;1.33;0.80;;;;;;;8.80;100.00;95123.28;5075778;28;20561;-68
2024/02/08 01:29:24;;;;;;;2.47;1.07;;;;;;;8.80;100.00;95123.28;5074853;28;20604;-68
2024/02/08 01:31:51;;;;;;;1.10;0.93;;;;;;;8.84;100.00;95116.66;5074555;28;20287;-68
2024/02/08 01:34:17;;;;;;;1.70;1.20;;;;;;;8.69;100.00;95113.34;5075590;28;20898;-68
2024/02/08 01:36:46;;;;;;;1.77;0.80;;;;;;;8.91;100.00;95117.50;5075368;28;20615;-68
2024/02/08 01:39:13;;;;;;;1.17;0.77;;;;;;;8.94;100.00;95097.91;5074939;28;20646;-69
2024/02/08 01:41:42;;;;;;;1.13;0.70;;;;;;;8.71;100.00;95108.69;5075417;28;20215;-68
2024/02/08 01:44:13;;;;;;;1.27;0.83;;;;;;;8.82;100.00;95096.81;5079566;28;20257;-68
2024/02/08 01:46:40;;;;;;;2.37;0.83;;;;;;;8.85;100.00;95097.25;5078526;28;20196;-67
2024/02/08 01:49:08;;;;;;;1.43;1.13;;;;;;;8.71;100.00;95100.00;5078325;28;20196;-67
2024/02/08 01:51:36;;;;;;;0.90;0.80;;;;;;;8.80;100.00;95097.03;5078922;28;20216;-68
2024/02/08 01:54:05;;;;;;;0.70;0.70;;;;;;;8.83;100.00;95094.00;5078841;28;20866;-68
2024/02/08 01:56:32;;;;;;;1.10;0.90;;;;;;;8.67;100.00;95089.06;5078725;28;20202;-68
2024/02/08 01:58:59;;;;;;;1.17;0.80;;;;;;;8.78;100.00;95091.19;5078147;28;20224;-67
2024/02/08 02:01:26;;;;;;;0.70;0.70;;;;;;;8.84;100.00;95079.88;5078245;28;20476;-68
2024/02/08 02:03:53;;;;;;;0.83;0.80;;;;;;;8.62;100.00;95080.16;5078445;28;20223;-68
2024/02/08 02:06:20;;;;;;;1.73;0.90;;;;;;;8.80;100.00;95080.47;5077355;28;20196;-67
2024/02/08 02:08:53;;;;;;;1.43;1.20;;;;;;;9.00;100.00;95084.81;5077806;28;20211;-67
2024/02/08 02:11:27;;;;;;;13.03;0.80;;;;;;;8.91;100.00;95080.72;5078191;28;20224;-68
2024/02/08 02:13:54;;;;;;;1.60;1.00;;;;;;;8.98;100.00;95084.19;5078220;28;20654;-67
2024/02/08 02:16:23;;;;;;;1.03;0.93;;;;;;;8.85;100.00;95084.13;5078467;28;20196;-68
2024/02/08 02:18:50;;;;;;;1.30;0.70;;;;;;;8.96;100.00;95085.38;5077756;28;20386;-67
2024/02/08 02:21:20;;;;;;;1.63;1.23;;;;;;;9.10;100.00;95072.94;5077747;28;20318;-67
2024/02/08 02:23:46;;;;;;;1.10;1.00;;;;;;;8.91;100.00;95075.47;5078190;28;20210;-67
2024/02/08 02:26:15;;;;;;;1.63;1.00;;;;;;;9.02;100.00;95076.75;5077941;28;20206;-67
2024/02/08 02:28:42;;;;;;;1.97;0.60;;;;;;;8.91;100.00;95070.22;5077532;28;20191;-67
2024/02/08 02:31:13;;;;;;;1.77;1.13;;;;;;;8.85;100.00;95076.25;5077280;28;20590;-67
2024/02/08 02:33:40;;;;;;;1.40;1.30;;;;;;;8.97;100.00;95073.88;5077990;28;20532;-67
2024/02/08 02:36:07;;;;;;;4.20;2.00;;;;;;;8.84;100.00;95074.63;5077764;28;20200;-68
2024/02/08 02:38:37;;;;;;;1.63;1.10;;;;;;;9.01;100.00;95075.09;5077656;28;20228;-67
2024/02/08 02:41:06;;;;;;;1.97;0.93;;;;;;;8.78;100.00;95069.34;5077638;28;20243;-68
2024/02/08 02:43:33;;;;;;;2.37;1.17;;;;;;;8.88;100.00;95067.97;5077533;28;20214;-67
2024/02/08 02:45:59;;;;;;;1.97;1.13;;;;;;;8.84;100.00;95061.47;5078104;28;20379;-67
2024/02/08 02:48:26;;;;;;;1.43;1.07;;;;;;;8.86;100.00;95062.13;5077804;28;20204;-67
2024/02/08 02:50:53;;;;;;;1.10;0.87;;;;;;;9.02;100.00;95069.66;5076444;28;20552;-67
2024/02/08 02:53:19;;;;;;;2.00;1.10;;;;;;;8.97;100.00;95066.78;5077299;28;20200;-67
2024/02/08 02:55:47;;;;;;;1.80;1.37;;;;;;;9.07;100.00;95055.94;5078224;28;20242;-68
2024/02/08 02:58:14;;;;;;;5.80;1.10;;;;;;;8.87;100.00;95047.16;5077122;28;20216;-67
2024/02/08 03:00:40;;;;;;;0.87;0.80;;;;;;;8.96;100.00;95062.56;5076041;28;20219;-68
2024/02/08 03:03:12;;;;;;;1.60;1.00;;;;;;;8.83;100.00;95064.31;5078265;28;20199;-68
2024/02/08 03:05:42;;;;;;;1.67;1.10;;;;;;;8.86;100.00;95056.03;5076580;28;20293;-67
2024/02/08 03:08:10;;;;;;;1.70;1.07;;;;;;;8.86;100.00;95067.38;5077239;28;20195;-68
2024/02/08 03:10:38;;;;;;;1.17;0.77;;;;;;;8.84;100.00;95058.84;5076293;28;20702;-67
2024/02/08 03:13:07;;;;;;;1.93;1.47;;;;;;;9.08;100.00;95056.53;5077295;28;20211;-68
2024/02/08 03:15:36;;;;;;;2.07;1.13;;;;;;;8.99;100.00;95056.13;5077127;28;20621;-67
2024/02/08 03:18:03;;;;;;;2.63;1.53;;;;;;;8.99;100.00;95051.66;5076989;28;20219;-67
2024/02/08 03:20:30;;;;;;;2.57;1.40;;;;;;;9.01;100.00;95048.84;5076188;28;20224;-67
2024/02/08 03:22:57;;;;;;;1.17;0.90;;;;;;;9.07;100.00;95040.97;5075260;28;20633;-67
2024/02/08 03:25:24;;;;;;;2.67;1.57;;;;;;;9.15;100.00;95054.75;5077131;28;20200;-67
2024/02/08 03:27:52;;;;;;;3.20;1.10;;;;;;;9.22;100.00;95046.91;5076567;28;20196;-68
2024/02/08 03:30:22;;;;;;;1.20;0.93;;;;;;;9.24;100.00;95035.19;5075691;28;20892;-67
2024/02/08 03:32:50;;;;;;;1.50;1.07;;;;;;;9.21;100.00;95046.06;5076277;28;20208;-67
2024/02/08 03:35:19;;;;;;;1.83;1.40;;;;;;;9.14;100.00;95050.50;5077008;28;20211;-67
2024/02/08 03:37:48;;;;;;;1.80;1.20;;;;;;;9.08;100.00;95056.53;5076225;28;20226;-68
2024/02/08 03:40:15;;;;;;;1.43;0.83;;;;;;;9.17;100.00;95060.63;5075680;28;20219;-67
2024/02/08 03:42:42;;;;;;;7.93;1.37;;;;;;;9.08;100.00;95049.69;5076454;28;20599;-67
2024/02/08 03:45:13;;;;;;;2.27;1.20;;;;;;;9.29;100.00;95050.34;5076500;28;20204;-68
2024/02/08 03:47:41;;;;;;;0.97;0.87;;;;;;;9.29;100.00;95052.97;5076740;28;20507;-67
2024/02/08 03:50:11;;;;;;;1.27;1.00;;;;;;;9.36;100.00;95045.94;5076246;28;20587;-69
2024/02/08 03:52:37;;;;;;;1.37;0.90;;;;;;;9.24;100.00;95050.94;5074485;28;20207;-67
2024/02/08 03:55:08;;;;;;;1.47;0.93;;;;;;;9.22;100.00;95057.41;5075903;28;20338;-67
2024/02/08 03:57:35;;;;;;;6.03;1.87;;;;;;;9.21;100.00;95050.53;5076575;28;20263;-67
2024/02/08 04:00:02;;;;;;;5.07;1.43;;;;;;;9.21;100.00;95050.53;5074991;28;20231;-68
2024/02/08 04:02:30;;;;;;;6.03;2.50;;;;;;;9.38;100.00;95052.63;5076317;28;20203;-67
2024/02/08 04:05:05;;;;;;;3.40;1.50;;;;;;;9.24;100.00;95044.88;5076600;28;20669;-68
2024/02/08 04:07:45;;;;;;;3.70;1.07;;;;;;;9.26;100.00;95051.56;5075869;28;20523;-67
2024/02/08 04:10:19;;;;;;;4.30;1.53;;;;;;;9.27;100.00;95044.50;5075058;28;20288;-67
2024/02/08 04:53:55;;;;;;;2.73;1.10;;;;;;;9.31;100.00;95035.19;5075234;28;20241;-67
2024/02/08 04:56:21;;;;;;;3.27;1.03;;;;;;;9.10;100.00;95043.22;5075948;28;20200;-67
2024/02/08 04:58:48;;;;;;;6.00;1.10;;;;;;;9.23;100.00;95035.38;5073757;28;20591;-67
2024/02/08 05:01:17;;;;;;;2.13;1.23;;;;;;;9.30;100.00;95038.84;5073279;28;20223;-67
2024/02/08 05:03:43;;;;;;;1.30;0.93;;;;;;;9.09;100.00;95036.34;5073877;28;20618;-67
2024/02/08 05:06:18;;;;;;;4.50;2.03;;;;;;;9.23;100.00;95033.56;5074045;28;20200;-68
2024/02/08 05:08:47;;;;;;;10.53;2.07;;;;;;;9.26;100.00;95027.09;5073369;28;20508;-67
2024/02/08 05:11:16;;;;;;;2.33;1.00;;;;;;;9.29;100.00;95032.78;5073055;28;20467;-67
2024/02/08 05:13:49;;;;;;;1.47;1.07;;;;;;;9.35;100.00;95036.44;5073117;28;20211;-66
2024/02/08 05:16:17;;;;;;;3.70;1.20;;;;;;;9.20;100.00;95039.22;5077876;28;20200;-68
2024/02/08 05:18:44;;;;;;;3.23;1.40;;;;;;;9.22;100.00;95033.75;5079102;28;20224;-67
2024/02/08 05:21:11;;;;;;;7.07;1.50;;;;;;;9.31;100.00;95032.56;5078649;28;20208;-67
2024/02/08 05:23:40;;;;;;;1.70;1.10;;;;;;;9.30;100.00;95030.94;5078751;28;20203;-67
2024/02/08 05:26:07;;;;;;;2.47;1.20;;;;;;;9.35;100.00;95034.59;5079003;28;20211;-67
2024/02/08 05:28:35;;;;;;;4.47;0.93;;;;;;;9.46;100.00;95027.97;5078710;28;20376;-68
2024/02/08 05:31:02;;;;;;;1.00;0.87;;;;;;;9.22;100.00;95033.75;5078784;28;20251;-67
2024/02/08 05:33:30;;;;;;;4.33;1.03;;;;;;;9.20;100.00;95015.56;5079442;28;20215;-67
2024/02/08 05:35:57;;;;;;;6.70;1.67;;;;;;;9.34;100.00;95025.13;5078695;28;20200;-67
2024/02/08 05:38:24;;;;;;;1.67;0.80;;;;;;;9.36;100.00;95024.91;5078781;28;20220;-67
2024/02/08 05:40:52;;;;;;;1.50;1.10;;;;;;;9.44;100.00;95027.34;5078031;28;20234;-67
2024/02/08 05:43:23;;;;;;;1.13;0.77;;;;;;;9.33;100.00;95017.41;5078621;28;20200;-68
2024/02/08 05:45:52;;;;;;;0.87;0.70;;;;;;;9.54;100.00;95027.78;5079211;28;20200;-67
2024/02/08 05:48:19;;;;;;;1.33;1.00;;;;;;;9.31;100.00;95029.94;5078451;28;20200;-67
2024/02/08 05:50:46;;;;;;;0.70;0.60;;;;;;;9.33;100.00;95017.41;5077417;28;20485;-67
2024/02/08 05:53:15;;;;;;;1.03;0.70;;;;;;;9.25;100.00;95012.34;5078572;28;20826;-67
2024/02/08 05:55:48;;;;;;;1.37;0.90;;;;;;;9.42;100.00;95016.19;5078742;28;20204;-68
2024/02/08 05:58:19;;;;;;;3.07;1.70;;;;;;;9.36;100.00;95023.06;5078414;28;20573;-67
2024/02/08 06:00:52;;;;;;;1.30;0.90;;;;;;;9.60;100.00;95019.06;5078163;28;20230;-67
2024/02/08 06:03:27;;;;;;;2.27;1.23;;;;;;;9.62;100.00;95017.84;5078697;28;20204;-68
2024/02/08 06:06:06;;;;;;;3.17;1.70;;;;;;;9.52;100.00;95006.94;5078508;28;20196;-68
2024/02/08 06:08:39;;;;;;;2.80;1.43;;;;;;;9.40;100.00;95002.47;5078452;28;20292;-68
2024/02/08 06:11:16;;;;;;;3.60;1.07;;;;;;;9.38;100.00;95000.03;5078080;28;20242;-68
2024/02/08 06:13:50;;;;;;;0.97;0.97;;;;;;;9.33;100.00;95006.88;5078368;28;20210;-67
2024/02/08 06:16:26;;;;;;;3.40;1.50;;;;;;;9.39;100.00;95000.84;5078687;28;20294;-68
2024/02/08 06:18:57;;;;;;;4.20;1.83;;;;;;;9.54;100.00;95004.09;5077714;28;20220;-68
2024/02/08 06:21:38;;;;;;;1.77;1.30;;;;;;;9.48;100.00;95002.28;5078278;28;20215;-68
2024/02/08 06:24:29;;;;;;;2.47;1.60;;;;;;;9.45;100.00;95007.94;5078517;28;20224;-67
2024/02/08 06:26:55;;;;;;;2.00;1.07;;;;;;;9.38;100.00;95013.19;5079193;28;20610;-67
2024/02/08 06:29:26;;;;;;;0.77;0.73;;;;;;;9.56;100.00;95020.47;5077439;28;20192;-67
2024/02/08 06:32:00;;;;;;;2.03;0.93;;;;;;;9.43;100.00;95017.84;5077820;28;20196;-67
2024/02/08 06:34:42;;;;;;;0.87;0.70;;;;;;;9.53;100.00;95024.31;5078918;28;20564;-67
2024/02/08 06:37:25;;;;;;;1.20;0.77;;;;;;;9.54;100.00;95025.16;5078552;28;20609;-68
2024/02/08 06:39:55;;;;;;;0.73;0.70;;;;;;;9.52;100.00;95027.97;5077401;28;20236;-67
2024/02/08 06:45:44;;;;;;;0.83;0.77;;;;;;;9.63;100.00;95035.25;5077837;28;20248;-68
2024/02/08 07:37:39;;;;;;;0.70;0.70;;;;;;;9.55;100.00;95042.56;5076861;28;20593;-68
2024/02/08 07:40:24;;;;;;;1.60;1.00;;;;;;;10.06;100.00;95037.34;5074854;28;20231;-68
2024/02/08 07:42:53;;;;;;;7.13;2.47;;;;;;;9.89;100.00;95038.75;5077452;28;20678;-68
2024/02/08 07:45:26;;;;;;;9.50;2.43;;;;;;;9.86;100.00;95049.69;5078044;28;20245;-67
2024/02/08 07:47:58;;;;;;;6.00;1.90;;;;;;;9.82;100.00;95048.44;5076885;28;20239;-67
2024/02/08 07:50:35;;;;;;;2.10;1.30;;;;;;;9.88;100.00;95050.28;5076259;28;20231;-68
2024/02/08 07:53:08;;;;;;;1.30;1.20;;;;;;;9.84;100.00;95053.53;5076383;28;20290;-67
2024/02/08 07:55:57;;;;;;;2.60;0.80;;;;;;;9.90;100.00;95050.06;5076834;28;20204;-67
2024/02/08 07:58:27;;;;;;;0.93;0.80;;;;;;;9.84;100.00;95048.25;5072666;28;20196;-67
2024/02/08 08:00:56;;;;;;;1.53;0.90;;;;;;;9.83;100.00;95042.16;5075376;28;20246;-67
2024/02/08 08:03:31;;;;;;;2.33;0.63;;;;;;;9.88;100.00;95042.38;5076086;28;20261;-67
2024/02/08 08:05:58;;;;;;;1.37;0.80;;;;;;;9.86;100.00;95039.16;5074360;28;20207;-68
2024/02/08 08:08:29;;;;;;;1.07;0.90;;;;;;;9.74;100.00;95032.06;5076154;28;20192;-68
2024/02/08 08:11:02;;;;;;;1.13;0.90;;;;;;;9.91;100.00;95039.34;5074089;28;21116;-67
2024/02/08 08:18:56;;;;;;;0.93;0.70;;;;;;;9.80;100.00;95062.81;5073913;28;20253;-68
2024/02/08 08:21:25;;;;;;;2.27;0.93;;;;;;;9.84;100.00;95061.41;5073788;28;20220;-67
2024/02/08 08:23:59;;;;;;;2.67;1.03;;;;;;;9.84;100.00;95070.09;5074379;28;20223;-67
2024/02/08 08:26:37;;;;;;;0.77;0.63;;;;;;;9.96;100.00;95044.03;5073147;28;20241;-68
2024/02/08 08:29:04;;;;;;;1.50;0.60;;;;;;;9.91;100.00;95049.84;5074001;28;20586;-68
2024/02/08 08:31:37;;;;;;;0.90;0.80;;;;;;;10.06;100.00;95053.16;5074342;28;20227;-68
2024/02/08 08:36:57;;;;;;;3.33;0.80;;;;;;;9.95;100.00;95058.16;5074766;28;20256;-68
2024/02/08 08:42:16;;;;;;;0.90;0.60;;;;;;;10.17;100.00;95049.91;5074814;28;20303;-68
2024/02/08 08:44:48;;;;;;;1.13;0.83;;;;;;;10.13;100.00;95037.34;5075864;28;20263;-68
2024/02/08 08:47:15;;;;;;;1.40;0.80;;;;;;;10.22;100.00;95020.34;5076102;28;20235;-68
2024/02/08 08:49:42;;;;;;;2.90;0.70;;;;;;;10.28;100.00;95022.16;5075721;28;20661;-68
2024/02/08 08:52:09;;;;;;;3.33;1.40;;;;;;;10.13;100.00;95027.66;5079133;28;20284;-68
2024/02/08 08:54:36;;;;;;;0.70;0.70;;;;;;;10.07;100.00;95020.56;5074819;28;20199;-69
2024/02/08 08:57:12;;;;;;;0.90;0.70;;;;;;;10.12;100.00;95014.66;5079344;28;20227;-68
2024/02/08 08:59:42;;;;;;;0.67;0.67;;;;;;;10.15;100.00;95009.81;5078738;28;20218;-68
2024/02/08 09:02:09;;;;;;;0.97;0.60;;;;;;;9.95;100.00;95014.25;5079035;28;20203;-68
2024/02/08 09:04:36;;;;;;;0.90;0.70;;;;;;;10.12;100.00;95012.88;5079517;28;20248;-68
2024/02/08 09:07:10;;;;;;;1.03;0.93;;;;;;;10.11;100.00;94994.66;5079156;28;20218;-68
2024/02/08 09:10:00;;;;;;;1.77;1.00;;;;;;;10.29;100.00;94993.00;5071496;28;20217;-68
2024/02/08 09:12:29;;;;;;;1.00;0.80;;;;;;;10.22;100.00;95002.75;5077805;28;20253;-68
2024/02/08 09:14:59;;;;;;;1.23;0.63;;;;;;;10.34;100.00;94994.00;5078678;28;20218;-68
2024/02/08 09:17:40;;;;;;;2.80;0.87;;;;;;;10.40;100.00;94998.44;5078231;28;20241;-68
2024/02/08 09:20:19;;;;;;;1.63;0.90;;;;;;;10.43;100.00;94990.13;5077602;28;20223;-67
2024/02/08 09:22:47;;;;;;;0.77;0.67;;;;;;;10.33;100.00;94995.03;5078134;28;20204;-68
2024/02/08 09:25:13;;;;;;;0.63;0.60;;;;;;;10.36;100.00;94991.97;5077289;28;20206;-67
2024/02/08 09:27:47;;;;;;;1.00;0.80;;;;;;;10.38;100.00;94997.81;5077280;28;20261;-67
2024/02/08 09:30:15;;;;;;;2.10;1.07;;;;;;;10.55;100.00;94998.19;5077762;28;20220;-67
2024/02/08 09:32:45;;;;;;;1.50;0.60;;;;;;;10.56;100.00;95003.25;5077989;28;20200;-67
2024/02/08 09:35:16;;;;;;;1.40;0.67;;;;;;;10.71;100.00;95000.41;5078464;28;20196;-67
2024/02/08 09:37:46;;;;;;;2.67;1.40;;;;;;;10.78;100.00;94994.09;5077522;28;20322;-67
2024/02/08 09:40:20;;;;;;;1.67;0.83;;;;;;;10.79;100.00;94997.53;5076529;28;20227;-67
2024/02/08 09:42:55;;;;;;;1.13;0.90;;;;;;;10.76;100.00;94996.13;5078468;28;20208;-68
2024/02/08 09:45:43;;;;;;;3.03;1.20;;;;;;;11.05;100.00;94991.13;5076083;28;21081;-67
2024/02/08 09:48:15;;;;;;;2.00;1.00;;;;;;;11.05;100.00;94991.13;5075886;28;20210;-68
2024/02/08 09:50:47;;;;;;;1.40;1.20;;;;;;;11.28;100.00;94988.78;5076712;28;20220;-68
2024/02/08 09:53:19;;;;;;;3.20;1.30;;;;;;;11.44;100.00;94985.66;5077385;28;20196;-67
2024/02/08 09:55:55;;;;;;;2.37;1.40;;;;;;;11.45;100.00;94982.00;5076870;28;20285;-67
2024/02/08 09:58:33;;;;;;;8.80;2.07;;;;;;;11.35;100.00;94980.84;5075951;28;20199;-67
2024/02/08 10:01:02;;;;;;;0.70;0.70;;;;;;;11.41;100.00;94972.09;5076605;28;20247;-67
2024/02/08 10:03:31;;;;;;;5.00;1.20;;;;;;;11.44;100.00;94972.47;5077265;28;20195;-67
2024/02/08 10:06:12;;;;;;;2.53;1.17;;;;;;;11.59;100.00;94970.38;5076769;28;20204;-67
2024/02/08 10:08:51;;;;;;;4.87;2.10;;;;;;;11.47;100.00;94977.31;5077823;28;20199;-67
2024/02/08 10:11:36;;;;;;;2.73;1.20;;;;;;;11.78;100.00;94974.72;5078040;28;20220;-67
2024/02/08 10:14:02;;;;;;;2.47;0.90;;;;;;;11.77;100.00;94983.63;5078952;28;20208;-70
2024/02/08 10:16:42;;;;;;;1.17;0.90;;;;;;;11.67;100.00;94972.75;5073495;28;20231;-68
2024/02/08 10:19:24;;;;;;;2.57;1.30;;;;;;;12.01;100.00;94974.94;5073557;28;20211;-67
2024/02/08 10:22:10;;;;;;;1.40;1.00;;;;;;;12.11;100.00;94983.97;5075168;28;20207;-67
2024/02/08 10:26:19;;;;;;;3.00;1.10;;;;;;;11.89;100.00;94987.19;5075253;28;20204;-67
2024/02/08 10:27:35;;;;;;;1.10;0.90;;;;;;;11.63;100.00;94997.94;5075381;28;20196;-66
2024/02/08 10:30:06;;;;;;;3.27;1.07;;;;;;;11.72;100.00;94979.03;5073695;28;20216;-68
2024/02/08 10:32:34;;;;;;;1.90;0.73;;;;;;;11.79;100.00;94968.41;5074880;28;20196;-66
2024/02/08 10:35:14;;;;;;;1.00;0.90;;;;;;;12.05;100.00;94971.63;5074876;28;20670;-67
2024/02/08 10:37:49;;;;;;;4.87;1.60;;;;;;;11.69;100.00;94965.44;5073892;28;20211;-66
2024/02/08 10:40:32;;;;;;;3.73;1.10;;;;;;;11.87;100.00;94957.59;5072296;28;20276;-67
2024/02/08 10:43:00;;;;;;;0.73;0.73;;;;;;;12.03;100.00;94951.75;5072533;28;20192;-67
2024/02/08 10:45:32;;;;;;;0.90;0.87;;;;;;;12.29;100.00;94947.03;5074857;28;20207;-67
2024/02/08 10:48:03;;;;;;;0.73;0.60;;;;;;;12.27;100.00;94938.50;5075342;28;20288;-67
2024/02/08 10:50:31;;;;;;;0.50;0.50;;;;;;;12.35;100.00;94940.88;5073893;28;20241;-66
2024/02/08 10:53:01;;;;;;;0.53;0.53;;;;;;;12.43;100.00;94944.03;5074747;28;20203;-66
2024/02/08 10:55:36;;;;;;;0.90;0.60;;;;;;;12.58;100.00;94931.28;5074635;28;20204;-66
2024/02/08 10:58:21;;;;;;;1.17;0.60;;;;;;;12.64;100.00;94922.47;5074434;28;20211;-67
2024/02/08 11:01:06;;;;;;;0.93;0.73;;;;;;;12.71;100.00;94919.75;5071489;28;20594;-67
2024/02/08 11:03:42;;;;;;;1.80;0.90;;;;;;;12.93;100.00;94919.09;5074794;28;20292;-67
2024/02/08 11:06:26;;;;;;;0.53;0.50;;;;;;;12.58;100.00;94923.34;5075159;28;20207;-68
2024/02/08 11:09:14;;;;;;;1.03;0.73;;;;;;;12.49;100.00;94911.47;5073826;28;20246;-69
2024/02/08 11:11:45;;;;;;;0.50;0.50;;;;;;;12.52;100.00;94912.84;5074606;28;20984;-68
2024/02/08 11:14:18;;;;;;;1.77;0.60;;;;;;;12.55;100.00;94913.22;5073669;28;21060;-69
2024/02/08 11:16:49;;;;;;;0.50;0.50;;;;;;;12.55;100.00;94909.75;5075321;28;20287;-68
2024/02/08 11:19:19;;;;;;;0.50;0.50;;;;;;;12.78;100.00;94914.16;5074039;28;20364;-67
2024/02/08 11:21:49;;;;;;;1.50;0.70;;;;;;;12.73;100.00;94901.81;5075468;28;20227;-67
2024/02/08 11:24:28;;;;;;;0.80;0.70;;;;;;;12.80;100.00;94903.38;5074344;28;20196;-68
2024/02/08 11:26:57;;;;;;;1.57;1.10;;;;;;;12.65;100.00;94892.34;5075084;28;20841;-67
2024/02/08 11:29:27;;;;;;;0.77;0.63;;;;;;;12.35;100.00;94904.72;5074769;28;20203;-68
2024/02/08 11:31:55;;;;;;;1.43;0.73;;;;;;;12.32;100.00;94910.44;5074033;28;20210;-69
2024/02/08 11:34:27;;;;;;;0.50;0.40;;;;;;;12.44;100.00;94907.88;5075176;28;20595;-66
2024/02/08 11:36:58;;;;;;;1.23;0.70;;;;;;;12.30;100.00;94888.72;5074819;28;20207;-66
2024/02/08 11:39:30;;;;;;;0.70;0.70;;;;;;;12.30;100.00;94891.34;5074279;28;20203;-68
2024/02/08 11:42:00;;;;;;;0.30;0.30;;;;;;;12.09;100.00;94892.81;5074138;28;20203;-69
2024/02/08 11:44:28;;;;;;;0.67;0.50;;;;;;;12.06;100.00;94901.16;5075068;28;20275;-67
2024/02/08 11:46:59;;;;;;;0.50;0.50;;;;;;;12.08;100.00;94885.91;5075163;28;20200;-67
2024/02/08 11:49:35;;;;;;;1.87;1.20;;;;;;;12.18;100.00;94893.13;5075003;28;20585;-67
2024/02/08 11:52:06;;;;;;;2.43;1.23;;;;;;;12.34;100.00;94884.59;5071360;28;20203;-67
2024/02/08 11:54:37;;;;;;;3.67;2.00;;;;;;;12.40;100.00;94883.72;5074201;28;20207;-67
2024/02/08 11:57:06;;;;;;;2.13;1.40;;;;;;;12.63;100.00;94875.13;5074362;28;20231;-67
2024/02/08 11:59:36;;;;;;;1.20;0.97;;;;;;;12.76;100.00;94873.91;5073692;28;20211;-67
2024/02/08 12:02:07;;;;;;;1.67;1.10;;;;;;;12.64;100.00;94867.00;5073508;28;20203;-67
2024/02/08 12:04:36;;;;;;;1.00;0.70;;;;;;;12.70;100.00;94860.78;5074303;28;20204;-67
2024/02/08 12:07:04;;;;;;;0.70;0.50;;;;;;;12.53;100.00;94854.50;5074704;28;20200;-67
2024/02/08 12:09:32;;;;;;;0.50;0.50;;;;;;;12.75;100.00;94857.50;5073719;28;20211;-67
2024/02/08 12:11:59;;;;;;;0.50;0.50;;;;;;;12.88;100.00;94852.84;5074768;28;20261;-67
2024/02/08 12:14:26;;;;;;;0.40;0.40;;;;;;;12.89;100.00;94844.72;5073937;28;20203;-67
2024/02/08 12:16:57;;;;;;;0.50;0.50;;;;;;;13.14;100.00;94836.63;5073421;28;21245;-67
2024/02/08 12:19:24;;;;;;;1.83;1.20;;;;;;;13.39;100.00;94835.44;5072825;28;20791;-67
2024/02/08 12:21:57;;;;;;;1.13;0.60;;;;;;;13.58;100.00;94845.69;5073206;28;20348;-67
2024/02/08 12:24:24;;;;;;;0.80;0.60;;;;;;;13.30;100.00;94847.38;5073038;28;20195;-67
2024/02/08 12:26:54;;;;;;;0.80;0.60;;;;;;;13.47;100.00;94843.81;5074376;28;20200;-67
2024/02/08 12:29:24;;;;;;;0.67;0.40;;;;;;;13.31;100.00;94837.59;5073810;28;20196;-67
2024/02/08 12:31:54;;;;;;;0.60;0.60;;;;;;;13.38;100.00;94833.81;5073350;28;20207;-67
2024/02/08 12:34:31;;;;;;;1.13;0.50;;;;;;;13.30;100.00;94820.94;5074309;28;20200;-67
2024/02/08 12:37:05;;;;;;;0.43;0.43;;;;;;;13.25;100.00;94825.25;5073842;28;20207;-67
2024/02/08 12:39:34;;;;;;;0.60;0.60;;;;;;;13.13;100.00;94819.16;5074424;28;20199;-67
2024/02/08 12:42:04;;;;;;;2.10;0.70;;;;;;;13.06;100.00;94823.72;5074593;28;20224;-68
2024/02/08 12:44:34;;;;;;;0.50;0.50;;;;;;;12.99;100.00;94826.47;5075136;28;20200;-67
2024/02/08 12:47:05;;;;;;;0.57;0.50;;;;;;;12.87;100.00;94816.91;5074931;28;20207;-67
2024/02/08 12:49:33;;;;;;;1.77;0.80;;;;;;;13.07;100.00;94809.47;5073605;28;20208;-67
2024/02/08 12:52:03;;;;;;;0.80;0.60;;;;;;;13.33;100.00;94796.66;5071499;28;20207;-67
2024/02/08 12:54:32;;;;;;;2.63;0.90;;;;;;;13.04;100.00;94809.94;5071835;28;20199;-67
2024/02/08 12:57:07;;;;;;;0.77;0.60;;;;;;;13.19;100.00;94802.38;5073502;28;20206;-68
2024/02/08 12:59:35;;;;;;;0.63;0.57;;;;;;;13.11;100.00;94810.63;5073109;28;20295;-67
2024/02/08 13:02:08;;;;;;;0.40;0.40;;;;;;;12.96;100.00;94804.97;5072351;28;20204;-67
2024/02/08 13:04:36;;;;;;;0.50;0.50;;;;;;;13.00;100.00;94801.63;5074243;28;20207;-67
2024/02/08 13:07:05;;;;;;;1.00;0.70;;;;;;;13.05;100.00;94795.69;5074389;28;20203;-67
2024/02/08 13:09:37;;;;;;;0.90;0.87;;;;;;;13.00;100.00;94782.34;5073560;28;20208;-67
2024/02/08 13:12:15;;;;;;;1.00;0.90;;;;;;;13.31;100.00;94777.53;5073513;28;20207;-67
2024/02/08 13:14:48;;;;;;;0.93;0.80;;;;;;;13.04;100.00;94773.72;5072693;28;20211;-67
2024/02/08 13:17:18;;;;;;;3.27;1.37;;;;;;;13.30;100.00;94769.84;5074101;28;20207;-68
2024/02/08 13:19:47;;;;;;;1.00;0.90;;;;;;;13.26;100.00;94769.47;5073588;28;20238;-67
2024/02/08 13:22:16;;;;;;;2.43;0.93;;;;;;;13.35;100.00;94770.75;5073939;28;20235;-67
2024/02/08 13:24:45;;;;;;;0.90;0.70;;;;;;;13.17;100.00;94768.19;5074305;28;20204;-67
2024/02/08 13:27:11;;;;;;;0.70;0.50;;;;;;;13.21;100.00;94763.28;5073475;28;20203;-67
2024/02/08 13:29:38;;;;;;;1.20;0.63;;;;;;;13.26;100.00;94760.75;5074494;28;20200;-67